sensor_id;sensor_type;location;lat;lon;timestamp;temperature;humidity
58554;DHT22;48119;53.218;6.576;2022-12-26T00:01:47;11.50;99.90
58554;DHT22;48119;53.218;6.576;2022-12-26T00:04:15;11.50;99.90
58554;DHT22;48119;53.218;6.576;2022-12-26T00:06:41;11.50;99.90
58554;DHT22;48119;53.218;6.576;2022-12-26T00:09:07;11.50;99.90
58554;DHT22;48119;53.218;6.576;2022-12-26T00:11:33;11.50;99.90
58554;DHT22;48119;53.218;6.576;2022-12-26T00:14:02;11.50;99.90
58554;DHT22;48119;53.218;6.576;2022-12-26T00:16:28;11.50;99.90
58554;DHT22;48119;53.218;6.576;2022-12-26T00:18:54;11.50;99.90
58554;DHT22;48119;53.218;6.576;2022-12-26T00:21:23;11.50;99.90
58554;DHT22;48119;53.218;6.576;2022-12-26T00:23:54;11.50;99.90
58554;DHT22;48119;53.218;6.576;2022-12-26T00:26:21;11.50;99.90
58554;DHT22;48119;53.218;6.576;2022-12-26T00:28:47;11.50;99.90
58554;DHT22;48119;53.218;6.576;2022-12-26T00:31:16;11.50;99.90
58554;DHT22;48119;53.218;6.576;2022-12-26T00:33:50;11.50;99.90
58554;DHT22;48119;53.218;6.576;2022-12-26T00:36:29;11.50;99.90
58554;DHT22;48119;53.218;6.576;2022-12-26T00:38:56;11.50;99.90
58554;DHT22;48119;53.218;6.576;2022-12-26T00:41:26;11.40;99.90
58554;DHT22;48119;53.218;6.576;2022-12-26T00:43:53;11.50;99.90
58554;DHT22;48119;53.218;6.576;2022-12-26T00:46:21;11.50;99.90
58554;DHT22;48119;53.218;6.576;2022-12-26T00:48:49;11.50;99.90
58554;DHT22;48119;53.218;6.576;2022-12-26T00:51:16;11.50;99.90
58554;DHT22;48119;53.218;6.576;2022-12-26T00:53:42;11.50;99.90
58554;DHT22;48119;53.218;6.576;2022-12-26T00:56:08;11.50;99.90
58554;DHT22;48119;53.218;6.576;2022-12-26T00:58:37;11.50;99.90
58554;DHT22;48119;53.218;6.576;2022-12-26T01:01:14;11.50;99.90
58554;DHT22;48119;53.218;6.576;2022-12-26T01:03:42;11.50;99.90
58554;DHT22;48119;53.218;6.576;2022-12-26T01:06:10;11.50;99.90
58554;DHT22;48119;53.218;6.576;2022-12-26T01:08:36;11.50;99.90
58554;DHT22;48119;53.218;6.576;2022-12-26T01:11:07;11.50;99.90
58554;DHT22;48119;53.218;6.576;2022-12-26T01:13:36;11.50;99.90
58554;DHT22;48119;53.218;6.576;2022-12-26T01:16:04;11.50;99.90
58554;DHT22;48119;53.218;6.576;2022-12-26T01:18:33;11.50;99.90
58554;DHT22;48119;53.218;6.576;2022-12-26T01:21:05;11.50;99.90
58554;DHT22;48119;53.218;6.576;2022-12-26T01:23:31;11.50;99.90
58554;DHT22;48119;53.218;6.576;2022-12-26T01:25:57;11.50;99.90
58554;DHT22;48119;53.218;6.576;2022-12-26T01:28:23;11.50;99.90
58554;DHT22;48119;53.218;6.576;2022-12-26T01:30:57;11.50;99.90
58554;DHT22;48119;53.218;6.576;2022-12-26T01:33:34;11.50;99.90
58554;DHT22;48119;53.218;6.576;2022-12-26T01:36:01;11.50;99.90
58554;DHT22;48119;53.218;6.576;2022-12-26T01:38:27;11.50;99.90
58554;DHT22;48119;53.218;6.576;2022-12-26T01:40:53;11.50;99.90
58554;DHT22;48119;53.218;6.576;2022-12-26T01:49:15;11.50;99.90
58554;DHT22;48119;53.218;6.576;2022-12-26T01:51:46;11.50;99.90
58554;DHT22;48119;53.218;6.576;2022-12-26T01:54:14;11.50;99.90
58554;DHT22;48119;53.218;6.576;2022-12-26T01:56:44;11.50;99.90
58554;DHT22;48119;53.218;6.576;2022-12-26T01:59:19;11.50;99.90
58554;DHT22;48119;53.218;6.576;2022-12-26T02:01:47;11.50;99.90
58554;DHT22;48119;53.218;6.576;2022-12-26T02:04:17;11.50;99.90
58554;DHT22;48119;53.218;6.576;2022-12-26T02:07:05;11.50;99.90
58554;DHT22;48119;53.218;6.576;2022-12-26T02:09:32;11.50;99.90
58554;DHT22;48119;53.218;6.576;2022-12-26T02:12:07;11.50;99.90
58554;DHT22;48119;53.218;6.576;2022-12-26T02:14:36;11.50;99.90
58554;DHT22;48119;53.218;6.576;2022-12-26T02:17:03;11.50;99.90
58554;DHT22;48119;53.218;6.576;2022-12-26T02:33:19;11.50;99.90
58554;DHT22;48119;53.218;6.576;2022-12-26T02:41:44;11.40;99.90
58554;DHT22;48119;53.218;6.576;2022-12-26T02:44:20;11.40;99.90
58554;DHT22;48119;53.218;6.576;2022-12-26T02:47:21;11.40;99.90
58554;DHT22;48119;53.218;6.576;2022-12-26T02:53:38;11.50;99.90
58554;DHT22;48119;53.218;6.576;2022-12-26T02:56:52;11.40;99.90
58554;DHT22;48119;53.218;6.576;2022-12-26T03:02:44;11.40;99.90
58554;DHT22;48119;53.218;6.576;2022-12-26T03:05:55;11.50;99.90
58554;DHT22;48119;53.218;6.576;2022-12-26T03:08:59;11.50;99.90
58554;DHT22;48119;53.218;6.576;2022-12-26T03:11:49;11.50;99.90
58554;DHT22;48119;53.218;6.576;2022-12-26T03:14:39;11.50;99.90
58554;DHT22;48119;53.218;6.576;2022-12-26T03:17:10;11.50;99.90
58554;DHT22;48119;53.218;6.576;2022-12-26T03:20:03;11.50;99.90
58554;DHT22;48119;53.218;6.576;2022-12-26T03:22:31;11.60;99.90
58554;DHT22;48119;53.218;6.576;2022-12-26T03:25:03;11.50;99.90
58554;DHT22;48119;53.218;6.576;2022-12-26T03:27:48;11.50;99.90
58554;DHT22;48119;53.218;6.576;2022-12-26T03:30:14;11.50;99.90
58554;DHT22;48119;53.218;6.576;2022-12-26T03:32:58;11.50;99.90
58554;DHT22;48119;53.218;6.576;2022-12-26T03:35:26;11.60;99.90
58554;DHT22;48119;53.218;6.576;2022-12-26T03:38:14;11.50;99.90
58554;DHT22;48119;53.218;6.576;2022-12-26T03:40:47;11.60;99.90
58554;DHT22;48119;53.218;6.576;2022-12-26T03:46:34;11.50;99.90
58554;DHT22;48119;53.218;6.576;2022-12-26T03:49:26;11.50;99.90
58554;DHT22;48119;53.218;6.576;2022-12-26T03:52:27;11.60;99.90
58554;DHT22;48119;53.218;6.576;2022-12-26T04:00:54;11.60;99.90
58554;DHT22;48119;53.218;6.576;2022-12-26T04:03:44;11.60;99.90
58554;DHT22;48119;53.218;6.576;2022-12-26T04:06:51;11.60;99.90
58554;DHT22;48119;53.218;6.576;2022-12-26T04:09:47;11.60;99.90
58554;DHT22;48119;53.218;6.576;2022-12-26T04:12:33;11.60;99.90
58554;DHT22;48119;53.218;6.576;2022-12-26T04:15:22;11.60;99.90
58554;DHT22;48119;53.218;6.576;2022-12-26T04:18:14;11.60;99.90
58554;DHT22;48119;53.218;6.576;2022-12-26T04:21:17;11.60;99.90
58554;DHT22;48119;53.218;6.576;2022-12-26T04:24:10;11.60;99.90
58554;DHT22;48119;53.218;6.576;2022-12-26T04:27:00;11.60;99.90
58554;DHT22;48119;53.218;6.576;2022-12-26T04:29:44;11.70;99.90
58554;DHT22;48119;53.218;6.576;2022-12-26T04:32:43;11.70;99.90
58554;DHT22;48119;53.218;6.576;2022-12-26T04:35:57;11.70;99.90
58554;DHT22;48119;53.218;6.576;2022-12-26T04:38:45;11.70;99.90
58554;DHT22;48119;53.218;6.576;2022-12-26T04:41:33;11.70;99.90
58554;DHT22;48119;53.218;6.576;2022-12-26T04:44:19;11.70;99.90
58554;DHT22;48119;53.218;6.576;2022-12-26T04:46:50;11.70;99.90
58554;DHT22;48119;53.218;6.576;2022-12-26T04:49:17;11.70;99.90
58554;DHT22;48119;53.218;6.576;2022-12-26T04:52:05;11.70;99.90
58554;DHT22;48119;53.218;6.576;2022-12-26T04:54:32;11.70;99.90
58554;DHT22;48119;53.218;6.576;2022-12-26T04:56:58;11.70;99.90
58554;DHT22;48119;53.218;6.576;2022-12-26T04:59:24;11.70;99.90
58554;DHT22;48119;53.218;6.576;2022-12-26T05:01:50;11.70;99.90
58554;DHT22;48119;53.218;6.576;2022-12-26T05:04:34;11.70;99.90
58554;DHT22;48119;53.218;6.576;2022-12-26T05:07:21;11.70;99.90
58554;DHT22;48119;53.218;6.576;2022-12-26T05:10:17;11.70;99.90
58554;DHT22;48119;53.218;6.576;2022-12-26T05:12:43;11.70;99.90
58554;DHT22;48119;53.218;6.576;2022-12-26T05:15:09;11.70;99.90
58554;DHT22;48119;53.218;6.576;2022-12-26T05:17:35;11.70;99.90
58554;DHT22;48119;53.218;6.576;2022-12-26T05:20:19;11.70;99.90
58554;DHT22;48119;53.218;6.576;2022-12-26T05:23:19;11.70;99.90
58554;DHT22;48119;53.218;6.576;2022-12-26T05:26:04;11.70;99.90
58554;DHT22;48119;53.218;6.576;2022-12-26T05:28:57;11.60;99.90
58554;DHT22;48119;53.218;6.576;2022-12-26T05:31:23;11.60;99.90
58554;DHT22;48119;53.218;6.576;2022-12-26T05:33:49;11.60;99.90
58554;DHT22;48119;53.218;6.576;2022-12-26T05:39:04;11.70;99.90
58554;DHT22;48119;53.218;6.576;2022-12-26T05:41:31;11.60;99.90
58554;DHT22;48119;53.218;6.576;2022-12-26T05:43:57;11.70;99.90
58554;DHT22;48119;53.218;6.576;2022-12-26T05:46:23;11.60;99.90
58554;DHT22;48119;53.218;6.576;2022-12-26T05:48:48;11.60;99.90
58554;DHT22;48119;53.218;6.576;2022-12-26T05:51:14;11.60;99.90
58554;DHT22;48119;53.218;6.576;2022-12-26T05:53:40;11.60;99.90
58554;DHT22;48119;53.218;6.576;2022-12-26T05:56:11;11.60;99.90
58554;DHT22;48119;53.218;6.576;2022-12-26T05:58:37;11.60;99.90
58554;DHT22;48119;53.218;6.576;2022-12-26T06:01:12;11.60;99.90
58554;DHT22;48119;53.218;6.576;2022-12-26T06:03:39;11.60;99.90
58554;DHT22;48119;53.218;6.576;2022-12-26T06:06:05;11.60;99.90
58554;DHT22;48119;53.218;6.576;2022-12-26T06:08:31;11.60;99.90
58554;DHT22;48119;53.218;6.576;2022-12-26T06:10:57;11.60;99.90
58554;DHT22;48119;53.218;6.576;2022-12-26T06:13:23;11.60;99.90
58554;DHT22;48119;53.218;6.576;2022-12-26T06:15:49;11.60;99.90
58554;DHT22;48119;53.218;6.576;2022-12-26T06:18:15;11.60;99.90
58554;DHT22;48119;53.218;6.576;2022-12-26T06:20:40;11.60;99.90
58554;DHT22;48119;53.218;6.576;2022-12-26T06:23:06;11.60;99.90
58554;DHT22;48119;53.218;6.576;2022-12-26T06:25:32;11.60;99.90
58554;DHT22;48119;53.218;6.576;2022-12-26T06:27:58;11.60;99.90
58554;DHT22;48119;53.218;6.576;2022-12-26T06:30:23;11.60;99.90
58554;DHT22;48119;53.218;6.576;2022-12-26T06:32:49;11.60;99.90
58554;DHT22;48119;53.218;6.576;2022-12-26T06:35:15;11.60;99.90
58554;DHT22;48119;53.218;6.576;2022-12-26T06:37:40;11.60;99.90
58554;DHT22;48119;53.218;6.576;2022-12-26T06:40:07;11.60;99.90
58554;DHT22;48119;53.218;6.576;2022-12-26T06:42:35;11.60;99.90
58554;DHT22;48119;53.218;6.576;2022-12-26T06:45:01;11.60;99.90
58554;DHT22;48119;53.218;6.576;2022-12-26T06:47:27;11.70;99.90
58554;DHT22;48119;53.218;6.576;2022-12-26T06:49:53;11.70;99.90
58554;DHT22;48119;53.218;6.576;2022-12-26T06:52:19;11.70;99.90
58554;DHT22;48119;53.218;6.576;2022-12-26T06:54:45;11.70;99.90
58554;DHT22;48119;53.218;6.576;2022-12-26T06:57:10;11.70;99.90
58554;DHT22;48119;53.218;6.576;2022-12-26T06:59:36;11.70;99.90
58554;DHT22;48119;53.218;6.576;2022-12-26T07:02:02;11.70;99.90
58554;DHT22;48119;53.218;6.576;2022-12-26T07:04:33;11.70;99.90
58554;DHT22;48119;53.218;6.576;2022-12-26T07:06:59;11.70;99.90
58554;DHT22;48119;53.218;6.576;2022-12-26T07:09:25;11.70;99.90
58554;DHT22;48119;53.218;6.576;2022-12-26T07:11:50;11.70;99.90
58554;DHT22;48119;53.218;6.576;2022-12-26T07:14:16;11.70;99.90
58554;DHT22;48119;53.218;6.576;2022-12-26T07:16:43;11.70;99.90
58554;DHT22;48119;53.218;6.576;2022-12-26T07:19:11;11.70;99.90
58554;DHT22;48119;53.218;6.576;2022-12-26T07:21:39;11.70;99.90
58554;DHT22;48119;53.218;6.576;2022-12-26T07:24:06;11.70;99.90
58554;DHT22;48119;53.218;6.576;2022-12-26T07:26:33;11.70;99.90
58554;DHT22;48119;53.218;6.576;2022-12-26T07:28:59;11.70;99.90
58554;DHT22;48119;53.218;6.576;2022-12-26T07:31:25;11.70;99.90
58554;DHT22;48119;53.218;6.576;2022-12-26T07:33:56;11.70;99.90
58554;DHT22;48119;53.218;6.576;2022-12-26T07:36:22;11.60;99.90
58554;DHT22;48119;53.218;6.576;2022-12-26T07:38:49;11.60;99.90
58554;DHT22;48119;53.218;6.576;2022-12-26T07:41:17;11.60;99.90
58554;DHT22;48119;53.218;6.576;2022-12-26T07:44:01;11.60;99.90
58554;DHT22;48119;53.218;6.576;2022-12-26T07:46:31;11.70;99.90
58554;DHT22;48119;53.218;6.576;2022-12-26T07:48:56;11.60;99.90
58554;DHT22;48119;53.218;6.576;2022-12-26T07:51:22;11.60;99.90
58554;DHT22;48119;53.218;6.576;2022-12-26T07:53:48;11.70;99.90
58554;DHT22;48119;53.218;6.576;2022-12-26T07:56:14;11.60;99.90
58554;DHT22;48119;53.218;6.576;2022-12-26T07:58:42;11.70;99.90
58554;DHT22;48119;53.218;6.576;2022-12-26T08:01:08;11.70;99.90
58554;DHT22;48119;53.218;6.576;2022-12-26T08:03:34;11.70;99.90
58554;DHT22;48119;53.218;6.576;2022-12-26T08:06:00;11.70;99.90
58554;DHT22;48119;53.218;6.576;2022-12-26T08:08:26;11.70;99.90
58554;DHT22;48119;53.218;6.576;2022-12-26T08:10:59;11.70;99.90
58554;DHT22;48119;53.218;6.576;2022-12-26T08:13:28;11.70;99.90
58554;DHT22;48119;53.218;6.576;2022-12-26T08:15:55;11.70;99.90
58554;DHT22;48119;53.218;6.576;2022-12-26T08:18:23;11.70;99.90
58554;DHT22;48119;53.218;6.576;2022-12-26T08:20:50;11.70;99.90
58554;DHT22;48119;53.218;6.576;2022-12-26T08:23:16;11.70;99.90
58554;DHT22;48119;53.218;6.576;2022-12-26T08:25:44;11.70;99.90
58554;DHT22;48119;53.218;6.576;2022-12-26T08:28:10;11.70;99.90
58554;DHT22;48119;53.218;6.576;2022-12-26T08:30:38;11.70;99.90
58554;DHT22;48119;53.218;6.576;2022-12-26T08:33:05;11.70;99.90
58554;DHT22;48119;53.218;6.576;2022-12-26T08:35:33;11.70;99.90
58554;DHT22;48119;53.218;6.576;2022-12-26T08:37:59;11.70;99.90
58554;DHT22;48119;53.218;6.576;2022-12-26T08:40:26;11.70;99.90
58554;DHT22;48119;53.218;6.576;2022-12-26T08:42:51;11.70;99.90
58554;DHT22;48119;53.218;6.576;2022-12-26T08:45:17;11.70;99.90
58554;DHT22;48119;53.218;6.576;2022-12-26T08:47:43;11.70;99.90
58554;DHT22;48119;53.218;6.576;2022-12-26T08:50:09;11.70;99.90
58554;DHT22;48119;53.218;6.576;2022-12-26T08:52:35;11.70;99.90
58554;DHT22;48119;53.218;6.576;2022-12-26T08:55:01;11.70;99.90
58554;DHT22;48119;53.218;6.576;2022-12-26T08:57:28;11.70;99.90
58554;DHT22;48119;53.218;6.576;2022-12-26T08:59:54;11.70;99.90
58554;DHT22;48119;53.218;6.576;2022-12-26T09:02:20;11.70;99.90
58554;DHT22;48119;53.218;6.576;2022-12-26T09:04:45;11.70;99.90
58554;DHT22;48119;53.218;6.576;2022-12-26T09:07:11;11.70;99.90
58554;DHT22;48119;53.218;6.576;2022-12-26T09:09:37;11.70;99.90
58554;DHT22;48119;53.218;6.576;2022-12-26T09:12:03;11.70;99.90
58554;DHT22;48119;53.218;6.576;2022-12-26T09:14:29;11.70;99.90
58554;DHT22;48119;53.218;6.576;2022-12-26T09:16:55;11.70;99.90
58554;DHT22;48119;53.218;6.576;2022-12-26T09:19:21;11.60;99.90
58554;DHT22;48119;53.218;6.576;2022-12-26T09:21:48;11.70;99.90
58554;DHT22;48119;53.218;6.576;2022-12-26T09:24:34;11.70;99.90
58554;DHT22;48119;53.218;6.576;2022-12-26T09:27:03;11.70;99.90
58554;DHT22;48119;53.218;6.576;2022-12-26T09:29:29;11.70;99.90
58554;DHT22;48119;53.218;6.576;2022-12-26T09:31:54;11.60;99.90
58554;DHT22;48119;53.218;6.576;2022-12-26T09:34:20;11.60;99.90
58554;DHT22;48119;53.218;6.576;2022-12-26T09:36:46;11.60;99.90
58554;DHT22;48119;53.218;6.576;2022-12-26T09:39:12;11.60;99.90
58554;DHT22;48119;53.218;6.576;2022-12-26T09:50:02;11.60;99.90
58554;DHT22;48119;53.218;6.576;2022-12-26T09:52:41;11.70;99.90
58554;DHT22;48119;53.218;6.576;2022-12-26T09:58:34;11.60;99.90
58554;DHT22;48119;53.218;6.576;2022-12-26T10:01:16;11.50;99.90
58554;DHT22;48119;53.218;6.576;2022-12-26T10:03:45;11.50;99.90
58554;DHT22;48119;53.218;6.576;2022-12-26T10:06:20;11.50;99.90
58554;DHT22;48119;53.218;6.576;2022-12-26T10:11:46;11.40;99.90
58554;DHT22;48119;53.218;6.576;2022-12-26T10:14:50;11.30;99.90
58554;DHT22;48119;53.218;6.576;2022-12-26T10:25:52;11.20;99.90
58554;DHT22;48119;53.218;6.576;2022-12-26T10:31:21;11.10;99.90
58554;DHT22;48119;53.218;6.576;2022-12-26T10:33:55;11.10;99.90
58554;DHT22;48119;53.218;6.576;2022-12-26T10:36:52;11.10;99.90
58554;DHT22;48119;53.218;6.576;2022-12-26T10:39:39;11.00;99.90
58554;DHT22;48119;53.218;6.576;2022-12-26T10:42:23;11.00;99.90
58554;DHT22;48119;53.218;6.576;2022-12-26T10:44:50;11.00;99.90
58554;DHT22;48119;53.218;6.576;2022-12-26T10:47:29;11.00;99.90
58554;DHT22;48119;53.218;6.576;2022-12-26T10:49:56;11.00;99.90
58554;DHT22;48119;53.218;6.576;2022-12-26T10:52:32;11.00;99.90
58554;DHT22;48119;53.218;6.576;2022-12-26T10:55:00;11.00;99.90
58554;DHT22;48119;53.218;6.576;2022-12-26T10:57:28;10.90;99.90
58554;DHT22;48119;53.218;6.576;2022-12-26T10:59:55;10.90;99.90
58554;DHT22;48119;53.218;6.576;2022-12-26T11:02:29;10.80;99.90
58554;DHT22;48119;53.218;6.576;2022-12-26T11:04:59;10.80;99.90
58554;DHT22;48119;53.218;6.576;2022-12-26T11:07:28;10.80;99.90
58554;DHT22;48119;53.218;6.576;2022-12-26T11:09:55;10.80;99.90
58554;DHT22;48119;53.218;6.576;2022-12-26T11:12:25;10.70;99.90
58554;DHT22;48119;53.218;6.576;2022-12-26T11:15:01;10.60;99.90
58554;DHT22;48119;53.218;6.576;2022-12-26T11:17:33;10.60;99.90
58554;DHT22;48119;53.218;6.576;2022-12-26T11:22:43;10.60;99.90
58554;DHT22;48119;53.218;6.576;2022-12-26T11:25:21;10.60;99.90
58554;DHT22;48119;53.218;6.576;2022-12-26T11:27:57;10.60;99.90
58554;DHT22;48119;53.218;6.576;2022-12-26T11:30:29;10.60;99.90
58554;DHT22;48119;53.218;6.576;2022-12-26T11:35:27;10.50;99.90
58554;DHT22;48119;53.218;6.576;2022-12-26T11:38:00;10.50;99.90
58554;DHT22;48119;53.218;6.576;2022-12-26T11:40:33;10.50;99.90
58554;DHT22;48119;53.218;6.576;2022-12-26T11:43:05;10.60;99.90
58554;DHT22;48119;53.218;6.576;2022-12-26T11:45:38;10.60;99.90
58554;DHT22;48119;53.218;6.576;2022-12-26T11:48:21;10.50;99.90
58554;DHT22;48119;53.218;6.576;2022-12-26T11:50:50;10.50;99.90
58554;DHT22;48119;53.218;6.576;2022-12-26T11:53:19;10.50;99.90
58554;DHT22;48119;53.218;6.576;2022-12-26T11:55:58;10.60;99.90
58554;DHT22;48119;53.218;6.576;2022-12-26T11:58:27;10.50;99.90
58554;DHT22;48119;53.218;6.576;2022-12-26T12:03:45;10.50;99.90
58554;DHT22;48119;53.218;6.576;2022-12-26T12:14:44;10.40;99.90
58554;DHT22;48119;53.218;6.576;2022-12-26T12:22:49;10.50;99.40
58554;DHT22;48119;53.218;6.576;2022-12-26T12:31:12;10.50;98.20
58554;DHT22;48119;53.218;6.576;2022-12-26T12:36:36;10.40;98.10
58554;DHT22;48119;53.218;6.576;2022-12-26T12:44:23;10.40;97.20
58554;DHT22;48119;53.218;6.576;2022-12-26T12:47:03;10.40;96.10
58554;DHT22;48119;53.218;6.576;2022-12-26T13:01:00;10.50;96.30
58554;DHT22;48119;53.218;6.576;2022-12-26T13:04:10;10.50;95.90
58554;DHT22;48119;53.218;6.576;2022-12-26T13:06:46;10.40;95.80
58554;DHT22;48119;53.218;6.576;2022-12-26T13:09:20;10.50;95.80
58554;DHT22;48119;53.218;6.576;2022-12-26T13:11:51;10.50;95.90
58554;DHT22;48119;53.218;6.576;2022-12-26T13:14:48;10.40;95.40
58554;DHT22;48119;53.218;6.576;2022-12-26T13:17:26;10.50;95.20
58554;DHT22;48119;53.218;6.576;2022-12-26T13:23:55;10.40;94.90
58554;DHT22;48119;53.218;6.576;2022-12-26T13:27:04;10.40;94.80
58554;DHT22;48119;53.218;6.576;2022-12-26T13:32:03;10.40;95.20
58554;DHT22;48119;53.218;6.576;2022-12-26T13:34:30;10.40;95.50
58554;DHT22;48119;53.218;6.576;2022-12-26T13:36:58;10.40;95.20
58554;DHT22;48119;53.218;6.576;2022-12-26T13:41:55;10.40;94.90
58554;DHT22;48119;53.218;6.576;2022-12-26T13:44:40;10.50;94.80
58554;DHT22;48119;53.218;6.576;2022-12-26T13:49:54;10.50;94.60
58554;DHT22;48119;53.218;6.576;2022-12-26T13:55:18;10.50;94.60
58554;DHT22;48119;53.218;6.576;2022-12-26T13:58:15;10.50;94.40
58554;DHT22;48119;53.218;6.576;2022-12-26T14:00:45;10.50;94.40
58554;DHT22;48119;53.218;6.576;2022-12-26T14:06:21;10.40;94.60
58554;DHT22;48119;53.218;6.576;2022-12-26T14:11:49;10.40;94.70
58554;DHT22;48119;53.218;6.576;2022-12-26T14:17:36;10.40;94.50
58554;DHT22;48119;53.218;6.576;2022-12-26T14:23:16;10.50;94.70
58554;DHT22;48119;53.218;6.576;2022-12-26T14:34:01;10.30;94.80
58554;DHT22;48119;53.218;6.576;2022-12-26T14:37:09;10.40;95.00
58554;DHT22;48119;53.218;6.576;2022-12-26T14:50:49;10.30;95.10
58554;DHT22;48119;53.218;6.576;2022-12-26T14:59:18;10.30;95.50
58554;DHT22;48119;53.218;6.576;2022-12-26T15:01:45;10.20;95.10
58554;DHT22;48119;53.218;6.576;2022-12-26T15:04:22;10.30;95.30
58554;DHT22;48119;53.218;6.576;2022-12-26T15:07:03;10.20;95.20
58554;DHT22;48119;53.218;6.576;2022-12-26T15:15:30;10.20;95.30
58554;DHT22;48119;53.218;6.576;2022-12-26T15:23:40;10.10;95.20
58554;DHT22;48119;53.218;6.576;2022-12-26T15:31:45;10.00;95.20
58554;DHT22;48119;53.218;6.576;2022-12-26T15:48:55;10.00;95.10
58554;DHT22;48119;53.218;6.576;2022-12-26T15:54:29;9.90;95.20
58554;DHT22;48119;53.218;6.576;2022-12-26T15:57:16;9.90;95.00
58554;DHT22;48119;53.218;6.576;2022-12-26T16:02:48;9.90;95.20
58554;DHT22;48119;53.218;6.576;2022-12-26T16:05:46;9.80;95.30
58554;DHT22;48119;53.218;6.576;2022-12-26T16:11:21;9.80;95.30
58554;DHT22;48119;53.218;6.576;2022-12-26T16:13:57;9.80;95.50
58554;DHT22;48119;53.218;6.576;2022-12-26T16:16:35;9.80;95.40
58554;DHT22;48119;53.218;6.576;2022-12-26T16:19:20;9.80;95.60
58554;DHT22;48119;53.218;6.576;2022-12-26T16:22:14;9.70;95.40
58554;DHT22;48119;53.218;6.576;2022-12-26T16:25:00;9.70;95.50
58554;DHT22;48119;53.218;6.576;2022-12-26T16:27:26;9.70;95.70
58554;DHT22;48119;53.218;6.576;2022-12-26T16:29:56;9.70;95.80
58554;DHT22;48119;53.218;6.576;2022-12-26T16:32:43;9.70;95.80
58554;DHT22;48119;53.218;6.576;2022-12-26T16:35:39;9.70;95.80
58554;DHT22;48119;53.218;6.576;2022-12-26T16:38:10;9.70;95.60
58554;DHT22;48119;53.218;6.576;2022-12-26T16:40:49;9.60;95.90
58554;DHT22;48119;53.218;6.576;2022-12-26T16:45:48;9.60;95.90
58554;DHT22;48119;53.218;6.576;2022-12-26T16:48:17;9.60;96.00
58554;DHT22;48119;53.218;6.576;2022-12-26T16:50:52;9.60;96.00
58554;DHT22;48119;53.218;6.576;2022-12-26T16:59:05;9.60;96.00
58554;DHT22;48119;53.218;6.576;2022-12-26T17:01:38;9.70;96.00
58554;DHT22;48119;53.218;6.576;2022-12-26T17:07:44;9.60;95.90
58554;DHT22;48119;53.218;6.576;2022-12-26T17:10:35;9.60;96.10
58554;DHT22;48119;53.218;6.576;2022-12-26T17:13:07;9.60;96.00
58554;DHT22;48119;53.218;6.576;2022-12-26T17:15:36;9.60;96.00
58554;DHT22;48119;53.218;6.576;2022-12-26T17:18:28;9.60;96.00
58554;DHT22;48119;53.218;6.576;2022-12-26T17:21:31;9.60;95.80
58554;DHT22;48119;53.218;6.576;2022-12-26T17:24:11;9.60;95.90
58554;DHT22;48119;53.218;6.576;2022-12-26T17:26:40;9.60;96.00
58554;DHT22;48119;53.218;6.576;2022-12-26T17:32:22;9.60;95.80
58554;DHT22;48119;53.218;6.576;2022-12-26T17:34:57;9.50;95.90
58554;DHT22;48119;53.218;6.576;2022-12-26T17:37:24;9.50;96.00
58554;DHT22;48119;53.218;6.576;2022-12-26T17:40:17;9.50;96.00
58554;DHT22;48119;53.218;6.576;2022-12-26T17:42:51;9.50;96.00
58554;DHT22;48119;53.218;6.576;2022-12-26T17:45:29;9.50;96.10
58554;DHT22;48119;53.218;6.576;2022-12-26T17:47:58;9.40;96.10
58554;DHT22;48119;53.218;6.576;2022-12-26T17:50:38;9.40;96.20
58554;DHT22;48119;53.218;6.576;2022-12-26T17:53:26;9.40;96.30
58554;DHT22;48119;53.218;6.576;2022-12-26T17:55:56;9.40;96.20
58554;DHT22;48119;53.218;6.576;2022-12-26T17:58:23;9.40;96.40
58554;DHT22;48119;53.218;6.576;2022-12-26T18:00:49;9.40;96.40
58554;DHT22;48119;53.218;6.576;2022-12-26T18:03:18;9.40;96.30
58554;DHT22;48119;53.218;6.576;2022-12-26T18:05:45;9.30;96.40
58554;DHT22;48119;53.218;6.576;2022-12-26T18:08:34;9.30;96.40
58554;DHT22;48119;53.218;6.576;2022-12-26T18:11:02;9.30;96.20
58554;DHT22;48119;53.218;6.576;2022-12-26T18:13:31;9.30;96.40
58554;DHT22;48119;53.218;6.576;2022-12-26T18:16:00;9.30;96.50
58554;DHT22;48119;53.218;6.576;2022-12-26T18:18:33;9.30;96.50
58554;DHT22;48119;53.218;6.576;2022-12-26T18:21:00;9.30;96.50
58554;DHT22;48119;53.218;6.576;2022-12-26T18:23:29;9.30;96.60
58554;DHT22;48119;53.218;6.576;2022-12-26T18:25:58;9.30;96.60
58554;DHT22;48119;53.218;6.576;2022-12-26T18:28:24;9.30;96.50
58554;DHT22;48119;53.218;6.576;2022-12-26T18:30:50;9.30;96.60
58554;DHT22;48119;53.218;6.576;2022-12-26T18:33:36;9.30;96.50
58554;DHT22;48119;53.218;6.576;2022-12-26T18:36:28;9.30;96.40
58554;DHT22;48119;53.218;6.576;2022-12-26T18:38:55;9.20;96.60
58554;DHT22;48119;53.218;6.576;2022-12-26T18:41:28;9.20;96.60
58554;DHT22;48119;53.218;6.576;2022-12-26T18:43:54;9.20;96.60
58554;DHT22;48119;53.218;6.576;2022-12-26T18:46:26;9.20;96.60
58554;DHT22;48119;53.218;6.576;2022-12-26T18:48:55;9.20;96.70
58554;DHT22;48119;53.218;6.576;2022-12-26T18:51:25;9.20;96.70
58554;DHT22;48119;53.218;6.576;2022-12-26T18:53:52;9.20;96.60
58554;DHT22;48119;53.218;6.576;2022-12-26T18:56:21;9.20;96.60
58554;DHT22;48119;53.218;6.576;2022-12-26T18:58:49;9.20;96.60
58554;DHT22;48119;53.218;6.576;2022-12-26T19:01:17;9.10;96.60
58554;DHT22;48119;53.218;6.576;2022-12-26T19:03:52;9.10;96.60
58554;DHT22;48119;53.218;6.576;2022-12-26T19:06:26;9.10;96.50
58554;DHT22;48119;53.218;6.576;2022-12-26T19:08:55;9.10;96.50
58554;DHT22;48119;53.218;6.576;2022-12-26T19:11:23;9.10;96.50
58554;DHT22;48119;53.218;6.576;2022-12-26T19:13:49;9.10;96.60
58554;DHT22;48119;53.218;6.576;2022-12-26T19:16:18;9.10;96.50
58554;DHT22;48119;53.218;6.576;2022-12-26T19:18:46;9.10;96.50
58554;DHT22;48119;53.218;6.576;2022-12-26T19:21:13;9.10;96.60
58554;DHT22;48119;53.218;6.576;2022-12-26T19:23:39;9.10;96.60
58554;DHT22;48119;53.218;6.576;2022-12-26T19:26:10;9.10;96.50
58554;DHT22;48119;53.218;6.576;2022-12-26T19:28:37;9.10;96.60
58554;DHT22;48119;53.218;6.576;2022-12-26T19:31:13;9.10;96.60
58554;DHT22;48119;53.218;6.576;2022-12-26T19:33:39;9.10;96.70
58554;DHT22;48119;53.218;6.576;2022-12-26T19:36:06;9.10;96.90
58554;DHT22;48119;53.218;6.576;2022-12-26T19:38:32;9.10;97.10
58554;DHT22;48119;53.218;6.576;2022-12-26T19:41:13;9.10;97.10
58554;DHT22;48119;53.218;6.576;2022-12-26T19:43:39;9.10;97.10
58554;DHT22;48119;53.218;6.576;2022-12-26T19:46:13;9.10;97.10
58554;DHT22;48119;53.218;6.576;2022-12-26T19:48:40;9.10;97.10
58554;DHT22;48119;53.218;6.576;2022-12-26T19:51:08;9.00;97.00
58554;DHT22;48119;53.218;6.576;2022-12-26T19:53:35;9.00;97.00
58554;DHT22;48119;53.218;6.576;2022-12-26T19:58:38;9.00;96.90
58554;DHT22;48119;53.218;6.576;2022-12-26T20:01:09;9.00;97.00